createdAt,value
2022-08-04T00:00:04.995Z,22.55
2022-08-04T00:01:05.007Z,22.57
2022-08-04T00:02:04.985Z,22.55
2022-08-04T00:03:05.407Z,22.54
2022-08-04T00:04:04.945Z,22.54
2022-08-04T00:05:05.553Z,22.54
2022-08-04T00:06:04.921Z,22.55
2022-08-04T00:07:04.934Z,22.53
2022-08-04T00:08:04.926Z,22.53
2022-08-04T00:09:04.894Z,22.53
2022-08-04T00:10:04.897Z,22.51
2022-08-04T00:11:04.865Z,22.50
2022-08-04T00:12:04.865Z,22.50
2022-08-04T00:13:04.886Z,22.48
2022-08-04T00:14:04.869Z,22.47
2022-08-04T00:15:04.826Z,22.47
2022-08-04T00:16:04.825Z,22.45
2022-08-04T00:17:04.806Z,22.44
2022-08-04T00:18:04.808Z,22.39
2022-08-04T00:19:04.810Z,22.39
2022-08-04T00:20:04.850Z,22.35
2022-08-04T00:21:04.776Z,22.33
2022-08-04T00:22:04.797Z,22.32
2022-08-04T00:23:04.897Z,22.30
2022-08-04T00:24:11.773Z,22.28
2022-08-04T00:25:05.724Z,22.28
2022-08-04T00:26:04.917Z,22.25
2022-08-04T00:27:04.951Z,22.25
2022-08-04T00:28:04.975Z,22.23
2022-08-04T00:29:04.679Z,22.23
2022-08-04T00:30:04.689Z,22.22
2022-08-04T00:31:04.658Z,22.20
2022-08-04T00:32:04.666Z,22.18
2022-08-04T00:33:04.651Z,22.18
2022-08-04T00:34:04.770Z,22.18
2022-08-04T00:35:04.602Z,22.17
2022-08-04T00:36:04.593Z,22.15
2022-08-04T00:37:04.579Z,22.14
2022-08-04T00:38:04.561Z,22.13
2022-08-04T00:39:04.615Z,22.13
2022-08-04T00:40:04.693Z,22.11
2022-08-04T00:41:04.521Z,22.11
2022-08-04T00:42:04.533Z,22.07
2022-08-04T00:43:04.510Z,22.06
2022-08-04T00:44:04.523Z,22.06
2022-08-04T00:45:04.510Z,22.02
2022-08-04T00:46:16.603Z,22.02
2022-08-04T00:47:05.461Z,22.00
2022-08-04T00:48:04.468Z,21.99
2022-08-04T00:49:04.442Z,21.96
2022-08-04T00:50:04.465Z,21.96
2022-08-04T00:51:04.413Z,21.95
2022-08-04T00:52:32.857Z,21.93
2022-08-04T00:53:05.647Z,21.93
2022-08-04T00:54:04.398Z,21.91
2022-08-04T00:55:08.607Z,21.91
2022-08-04T00:56:04.367Z,21.89
2022-08-04T00:57:04.357Z,21.89
2022-08-04T00:58:04.345Z,21.89
2022-08-04T00:59:04.325Z,21.88
2022-08-04T01:00:04.327Z,21.85
2022-08-04T01:01:04.422Z,21.83
2022-08-04T01:02:04.335Z,21.82
2022-08-04T01:03:04.303Z,21.82
2022-08-04T01:04:04.339Z,21.79
2022-08-04T01:05:04.266Z,21.77
2022-08-04T01:06:04.277Z,21.77
2022-08-04T01:07:04.238Z,21.76
2022-08-04T01:08:04.244Z,21.75
2022-08-04T01:09:04.224Z,21.75
2022-08-04T01:10:04.218Z,21.75
2022-08-04T01:11:04.224Z,21.75
2022-08-04T01:12:04.191Z,21.75
2022-08-04T01:13:05.038Z,21.73
2022-08-04T01:14:05.221Z,21.73
2022-08-04T01:15:04.162Z,21.72
2022-08-04T01:16:04.163Z,21.72
2022-08-04T01:17:04.142Z,21.72
2022-08-04T01:18:04.123Z,21.72
2022-08-04T01:19:04.110Z,21.72
2022-08-04T01:20:04.138Z,21.70
2022-08-04T01:21:04.130Z,21.69
2022-08-04T01:22:04.096Z,21.70
2022-08-04T01:23:04.062Z,21.69
2022-08-04T01:24:04.078Z,21.70
2022-08-04T01:25:04.661Z,21.67
2022-08-04T01:26:41.897Z,21.69
2022-08-04T01:27:05.021Z,21.66
2022-08-04T01:28:04.014Z,21.66
2022-08-04T01:29:04.011Z,21.64
2022-08-04T01:30:03.994Z,21.64
2022-08-04T01:31:03.986Z,21.64
2022-08-04T01:32:03.983Z,21.62
2022-08-04T01:33:03.946Z,21.61
2022-08-04T01:34:04.869Z,21.62
2022-08-04T01:35:03.934Z,21.61
2022-08-04T01:36:03.992Z,21.61
2022-08-04T01:37:03.919Z,21.64
2022-08-04T01:38:20.800Z,21.61
2022-08-04T01:39:04.942Z,21.62
2022-08-04T01:40:03.878Z,21.62
2022-08-04T01:41:03.854Z,21.62
2022-08-04T01:42:04.248Z,21.62
2022-08-04T01:43:03.835Z,21.61
2022-08-04T01:44:03.853Z,21.61
2022-08-04T01:45:03.842Z,21.62
2022-08-04T01:46:03.826Z,21.64
2022-08-04T01:47:03.807Z,21.64
2022-08-04T01:48:03.794Z,21.64
2022-08-04T01:49:03.775Z,21.66
2022-08-04T01:50:03.787Z,21.67
2022-08-04T01:51:03.777Z,21.67
2022-08-04T01:52:03.823Z,21.69
2022-08-04T01:53:03.754Z,21.70
2022-08-04T01:54:03.747Z,21.69
2022-08-04T01:55:03.830Z,21.70
2022-08-04T01:56:03.710Z,21.72
2022-08-04T01:57:38.225Z,21.72
2022-08-04T01:58:04.695Z,21.75
2022-08-04T01:59:03.693Z,21.73
2022-08-04T02:00:03.659Z,21.73
2022-08-04T02:01:04.893Z,21.75
2022-08-04T02:02:03.804Z,21.75
2022-08-04T02:03:03.664Z,21.75
2022-08-04T02:04:18.402Z,21.73
2022-08-04T02:05:04.611Z,21.75
2022-08-04T02:06:04.402Z,21.75
2022-08-04T02:07:03.579Z,21.77
2022-08-04T02:08:03.595Z,21.77
2022-08-04T02:09:03.563Z,21.76
2022-08-04T02:10:03.552Z,21.77
2022-08-04T02:11:03.525Z,21.77
2022-08-04T02:12:03.523Z,21.77
2022-08-04T02:13:03.530Z,21.77
2022-08-04T02:14:03.550Z,21.77
2022-08-04T02:15:03.491Z,21.77
2022-08-04T02:16:04.261Z,21.76
2022-08-04T02:17:03.511Z,21.77
2022-08-04T02:18:03.553Z,21.77
2022-08-04T02:19:03.551Z,21.76
2022-08-04T02:20:03.551Z,21.76
2022-08-04T02:21:03.470Z,21.75
2022-08-04T02:22:03.631Z,21.73
2022-08-04T02:23:03.647Z,21.72
2022-08-04T02:24:03.448Z,21.69
2022-08-04T02:25:03.695Z,21.67
2022-08-04T02:26:03.392Z,21.66
2022-08-04T02:27:03.355Z,21.64
2022-08-04T02:28:03.367Z,21.62
2022-08-04T02:29:03.396Z,21.61
2022-08-04T02:30:03.373Z,21.60
2022-08-04T02:31:03.315Z,21.58
2022-08-04T02:32:03.348Z,21.57
2022-08-04T02:33:03.320Z,21.55
2022-08-04T02:34:03.427Z,21.55
2022-08-04T02:35:03.336Z,21.52
2022-08-04T02:36:03.328Z,21.52
2022-08-04T02:37:03.319Z,21.52
2022-08-04T02:38:03.376Z,21.50
2022-08-04T02:39:03.487Z,21.50
2022-08-04T02:40:03.259Z,21.50
2022-08-04T02:41:03.400Z,21.48
2022-08-04T02:42:03.266Z,21.48
2022-08-04T02:43:03.351Z,21.46
2022-08-04T02:44:03.383Z,21.45
2022-08-04T02:45:03.381Z,21.43
2022-08-04T02:46:03.285Z,21.42
2022-08-04T02:47:03.404Z,21.42
2022-08-04T02:48:19.361Z,21.42
2022-08-04T02:49:04.299Z,21.39
2022-08-04T02:50:03.119Z,21.36
2022-08-04T02:51:03.201Z,21.36
2022-08-04T02:52:03.083Z,21.33
2022-08-04T02:53:03.319Z,21.33
2022-08-04T02:54:03.094Z,21.33
2022-08-04T02:55:03.152Z,21.30
2022-08-04T02:56:03.044Z,21.29
2022-08-04T02:57:08.065Z,21.29
2022-08-04T02:58:04.045Z,21.25
2022-08-04T02:59:02.999Z,21.25
2022-08-04T03:00:03.011Z,21.22
2022-08-04T03:01:03.072Z,21.22
2022-08-04T03:02:02.972Z,21.22
2022-08-04T03:03:02.952Z,21.20
2022-08-04T03:04:02.956Z,21.20
2022-08-04T03:05:02.968Z,21.18
2022-08-04T03:06:06.399Z,21.20
2022-08-04T03:07:03.915Z,21.18
2022-08-04T03:08:02.923Z,21.15
2022-08-04T03:09:02.909Z,21.15
2022-08-04T03:10:02.915Z,21.15
2022-08-04T03:11:02.863Z,21.17
2022-08-04T03:12:02.876Z,21.15
2022-08-04T03:13:02.860Z,21.14
2022-08-04T03:14:05.237Z,21.15
2022-08-04T03:15:03.863Z,21.17
2022-08-04T03:16:02.819Z,21.14
2022-08-04T03:17:02.811Z,21.12
2022-08-04T03:18:02.835Z,21.11
2022-08-04T03:19:02.767Z,21.09
2022-08-04T03:20:02.780Z,21.07
2022-08-04T03:21:02.770Z,21.06
2022-08-04T03:22:02.756Z,21.05
2022-08-04T03:23:17.842Z,21.03
2022-08-04T03:24:03.760Z,21.05
2022-08-04T03:25:02.728Z,21.03
2022-08-04T03:26:02.719Z,21.02
2022-08-04T03:27:02.700Z,21.00
2022-08-04T03:28:02.687Z,21.02
2022-08-04T03:29:02.709Z,20.99
2022-08-04T03:30:02.731Z,20.99
2022-08-04T03:31:02.668Z,20.97
2022-08-04T03:32:02.677Z,20.96
2022-08-04T03:33:02.620Z,20.96
2022-08-04T03:34:02.621Z,20.95
2022-08-04T03:35:02.613Z,20.93
2022-08-04T03:36:02.612Z,20.93
2022-08-04T03:37:02.572Z,20.90
2022-08-04T03:38:02.572Z,20.92
2022-08-04T03:39:02.637Z,20.88
2022-08-04T03:40:02.549Z,20.88
2022-08-04T03:41:03.993Z,20.87
2022-08-04T03:42:04.761Z,20.85
2022-08-04T03:43:02.540Z,20.85
2022-08-04T03:44:02.513Z,20.82
2022-08-04T03:45:02.500Z,20.82
2022-08-04T03:46:02.492Z,20.82
2022-08-04T03:47:02.491Z,20.81
2022-08-04T03:48:02.454Z,20.80
2022-08-04T03:49:02.452Z,20.78
2022-08-04T03:50:02.454Z,20.77
2022-08-04T03:51:02.423Z,20.75
2022-08-04T03:52:02.466Z,20.75
2022-08-04T03:53:02.396Z,20.74
2022-08-04T03:54:02.399Z,20.74
2022-08-04T03:55:02.419Z,20.72
2022-08-04T03:56:02.386Z,20.72
2022-08-04T03:57:02.375Z,20.70
2022-08-04T03:58:02.335Z,20.72
2022-08-04T03:59:02.334Z,20.69
2022-08-04T04:00:02.334Z,20.66
2022-08-04T04:01:02.335Z,20.66
2022-08-04T04:02:06.538Z,20.67
2022-08-04T04:03:02.307Z,20.67
2022-08-04T04:04:02.299Z,20.66
2022-08-04T04:05:02.267Z,20.66
2022-08-04T04:06:03.235Z,20.66
2022-08-04T04:07:02.238Z,20.66
2022-08-04T04:08:04.343Z,20.66
2022-08-04T04:09:03.231Z,20.63
2022-08-04T04:10:06.342Z,20.63
2022-08-04T04:11:02.206Z,20.65
2022-08-04T04:12:02.203Z,20.63
2022-08-04T04:13:02.227Z,20.62
2022-08-04T04:14:02.187Z,20.63
2022-08-04T04:15:02.188Z,20.60
2022-08-04T04:16:02.155Z,20.63
2022-08-04T04:17:02.172Z,20.63
2022-08-04T04:18:02.199Z,20.65
2022-08-04T04:19:02.140Z,20.63
2022-08-04T04:20:02.172Z,20.63
2022-08-04T04:21:02.091Z,20.63
2022-08-04T04:22:02.081Z,20.65
2022-08-04T04:23:02.067Z,20.65
2022-08-04T04:24:02.083Z,20.66
2022-08-04T04:25:02.143Z,20.66
2022-08-04T04:26:02.075Z,20.67
2022-08-04T04:27:02.127Z,20.66
2022-08-04T04:28:45.434Z,20.67
2022-08-04T04:29:03.627Z,20.67
2022-08-04T04:30:01.983Z,20.67
2022-08-04T04:31:02.031Z,20.67
2022-08-04T04:32:02.014Z,20.66
2022-08-04T04:33:02.049Z,20.66
2022-08-04T04:34:02.027Z,20.66
2022-08-04T04:35:01.971Z,20.67
2022-08-04T04:36:01.958Z,20.67
2022-08-04T04:37:01.922Z,20.66
2022-08-04T04:38:01.897Z,20.67
2022-08-04T04:39:02.143Z,20.67
2022-08-04T04:40:03.590Z,20.66
2022-08-04T04:41:01.887Z,20.67
2022-08-04T04:42:01.843Z,20.67
2022-08-04T04:43:01.842Z,20.67
2022-08-04T04:44:01.858Z,20.67
2022-08-04T04:45:01.827Z,20.66
2022-08-04T04:46:01.835Z,20.66
2022-08-04T04:47:01.812Z,20.66
2022-08-04T04:48:09.775Z,20.66
2022-08-04T04:49:02.807Z,20.66
2022-08-04T04:50:01.776Z,20.67
2022-08-04T04:51:01.786Z,20.67
2022-08-04T04:52:01.770Z,20.69
2022-08-04T04:53:01.742Z,20.70
2022-08-04T04:54:01.727Z,20.69
2022-08-04T04:55:01.747Z,20.69
2022-08-04T04:56:01.702Z,20.69
2022-08-04T04:57:01.687Z,20.69
2022-08-04T04:58:01.672Z,20.69
2022-08-04T04:59:01.678Z,20.72
2022-08-04T05:00:01.679Z,20.72
2022-08-04T05:01:01.919Z,20.75
2022-08-04T05:02:01.649Z,20.77
2022-08-04T05:03:04.881Z,20.77
2022-08-04T05:04:02.614Z,20.78
2022-08-04T05:05:01.620Z,20.78
2022-08-04T05:06:01.580Z,20.80
2022-08-04T05:07:01.587Z,20.80
2022-08-04T05:08:01.552Z,20.80
2022-08-04T05:09:02.560Z,20.82
2022-08-04T05:10:01.552Z,20.82
2022-08-04T05:11:01.552Z,20.82
2022-08-04T05:12:02.436Z,20.84
2022-08-04T05:14:36.104Z,20.84
2022-08-04T05:14:37.200Z,20.82
2022-08-04T05:15:02.527Z,20.84
2022-08-04T05:16:01.500Z,20.84
2022-08-04T05:17:01.464Z,20.85
2022-08-04T05:18:01.443Z,20.84
2022-08-04T05:19:01.475Z,20.85
2022-08-04T05:20:01.427Z,20.84
2022-08-04T05:21:01.485Z,20.85
2022-08-04T05:22:01.492Z,20.84
2022-08-04T05:23:01.423Z,20.85
2022-08-04T05:24:01.512Z,20.85
2022-08-04T05:25:01.445Z,20.85
2022-08-04T05:26:01.470Z,20.84
2022-08-04T05:27:01.545Z,20.85
2022-08-04T05:28:01.466Z,20.85
2022-08-04T05:29:01.424Z,20.85
2022-08-04T05:30:01.465Z,20.87
2022-08-04T05:31:01.485Z,20.88
2022-08-04T05:32:01.507Z,20.88
2022-08-04T05:33:01.609Z,20.92
2022-08-04T05:34:01.467Z,20.90
2022-08-04T05:35:01.503Z,20.92
2022-08-04T05:36:20.631Z,20.92
2022-08-04T05:37:02.303Z,20.93
2022-08-04T05:38:01.937Z,20.95
2022-08-04T05:39:01.543Z,20.96
2022-08-04T05:40:01.211Z,20.93
2022-08-04T05:41:01.222Z,20.96
2022-08-04T05:42:04.825Z,20.99
2022-08-04T05:43:01.203Z,21.02
2022-08-04T05:44:01.172Z,21.05
2022-08-04T05:45:01.181Z,21.07
2022-08-04T05:46:01.160Z,21.11
2022-08-04T05:47:01.130Z,21.12
2022-08-04T05:48:01.140Z,21.15
2022-08-04T05:49:01.113Z,21.18
2022-08-04T05:50:03.104Z,21.21
2022-08-04T05:51:01.397Z,21.25
2022-08-04T05:52:01.068Z,21.29
2022-08-04T05:53:01.440Z,21.32
2022-08-04T05:54:01.054Z,21.36
2022-08-04T05:55:01.048Z,21.39
2022-08-04T05:56:01.710Z,21.43
2022-08-04T05:57:01.041Z,21.48
2022-08-04T05:58:01.000Z,21.52
2022-08-04T05:59:01.008Z,21.57
2022-08-04T06:00:06.960Z,21.60
2022-08-04T06:01:02.040Z,21.62
2022-08-04T06:02:01.017Z,21.64
2022-08-04T06:03:01.020Z,21.69
2022-08-04T06:04:00.937Z,21.73
2022-08-04T06:05:00.932Z,21.77
2022-08-04T06:06:00.933Z,21.79
2022-08-04T06:07:00.944Z,21.82
2022-08-04T06:08:10.953Z,21.88
2022-08-04T06:09:01.887Z,21.89
2022-08-04T06:10:00.916Z,21.92
2022-08-04T06:11:00.899Z,21.95
2022-08-04T06:12:03.565Z,21.99
2022-08-04T06:13:00.912Z,22.02
2022-08-04T06:14:00.913Z,22.07
2022-08-04T06:15:00.895Z,22.13
2022-08-04T06:16:01.477Z,22.14
2022-08-04T06:17:00.861Z,22.17
2022-08-04T06:19:57.494Z,22.17
2022-08-04T06:20:03.933Z,22.23
2022-08-04T06:20:19.504Z,22.26
2022-08-04T06:21:01.990Z,22.29
2022-08-04T06:22:00.869Z,22.30
2022-08-04T06:23:00.772Z,22.33
2022-08-04T06:24:04.332Z,22.38
2022-08-04T06:25:00.746Z,22.39
2022-08-04T06:26:00.694Z,22.43
2022-08-04T06:27:00.712Z,22.45
2022-08-04T06:28:00.669Z,22.51
2022-08-04T06:29:00.664Z,22.53
2022-08-04T06:30:00.700Z,22.59
2022-08-04T06:31:00.661Z,22.62
2022-08-04T06:32:30.928Z,22.65
2022-08-04T06:33:03.864Z,22.66
2022-08-04T06:34:00.618Z,22.72
2022-08-04T06:35:00.699Z,22.76
2022-08-04T06:36:00.581Z,22.80
2022-08-04T06:37:00.599Z,22.85
2022-08-04T06:38:01.483Z,22.90
2022-08-04T06:39:00.630Z,22.91
2022-08-04T06:40:00.553Z,22.96
2022-08-04T06:41:00.542Z,23.02
2022-08-04T06:42:22.219Z,23.06
2022-08-04T06:43:01.761Z,23.09
2022-08-04T06:44:00.493Z,23.15
2022-08-04T06:45:00.527Z,23.21
2022-08-04T06:46:00.471Z,23.23
2022-08-04T06:47:00.479Z,23.27
2022-08-04T06:48:00.461Z,23.32
2022-08-04T06:49:00.458Z,23.34
2022-08-04T06:51:24.725Z,23.34
2022-08-04T06:51:26.464Z,23.40
2022-08-04T06:52:01.424Z,23.43
2022-08-04T06:53:00.394Z,23.46
2022-08-04T06:54:00.421Z,23.50
2022-08-04T06:55:00.385Z,23.51
2022-08-04T06:56:00.358Z,23.56
2022-08-04T06:57:00.405Z,23.59
2022-08-04T06:58:03.046Z,23.63
2022-08-04T06:59:00.354Z,23.68
2022-08-04T07:00:00.379Z,23.73
2022-08-04T07:01:00.329Z,23.76
2022-08-04T07:02:00.344Z,23.78
2022-08-04T07:03:00.273Z,23.81
2022-08-04T07:04:00.257Z,23.84
2022-08-04T07:05:03.322Z,23.88
2022-08-04T07:06:06.063Z,23.92
2022-08-04T07:07:01.359Z,23.93
2022-08-04T07:08:00.217Z,23.98
2022-08-04T07:09:00.261Z,24.03
2022-08-04T07:10:00.271Z,24.06
2022-08-04T07:11:00.209Z,24.10
2022-08-04T07:12:00.254Z,24.14
2022-08-04T07:13:00.270Z,24.17
2022-08-04T07:14:00.328Z,24.20
2022-08-04T07:15:00.300Z,24.23
2022-08-04T07:16:00.325Z,24.35
2022-08-04T07:17:00.359Z,24.43
2022-08-04T07:18:00.600Z,24.51
2022-08-04T07:19:09.779Z,24.57
2022-08-04T07:20:01.098Z,24.66
2022-08-04T07:21:00.120Z,24.76
2022-08-04T07:22:18.044Z,24.84
2022-08-04T07:23:01.051Z,24.89
2022-08-04T07:24:00.050Z,24.93
2022-08-04T07:25:00.050Z,24.96
2022-08-04T07:26:12.997Z,25.03
2022-08-04T07:27:01.014Z,25.08
2022-08-04T07:28:00.006Z,25.16
2022-08-04T07:29:00.020Z,25.25
2022-08-04T07:30:00.116Z,25.33
2022-08-04T07:30:59.990Z,25.36
2022-08-04T07:31:59.950Z,25.43
2022-08-04T07:32:59.954Z,25.51
2022-08-04T07:34:11.491Z,25.65
2022-08-04T07:35:00.977Z,25.77
2022-08-04T07:36:10.493Z,25.81
2022-08-04T07:37:00.902Z,25.88
2022-08-04T07:37:59.886Z,25.96
2022-08-04T07:38:59.912Z,26.00
2022-08-04T07:39:59.898Z,26.10
2022-08-04T07:40:59.898Z,26.19
2022-08-04T07:42:01.628Z,26.26
2022-08-04T07:42:59.854Z,26.36
2022-08-04T07:43:59.826Z,26.41
2022-08-04T07:44:59.840Z,26.45
2022-08-04T07:45:59.815Z,26.55
2022-08-04T07:46:59.810Z,26.65
2022-08-04T07:48:05.023Z,26.71
2022-08-04T07:49:00.792Z,26.78
2022-08-04T07:49:59.754Z,26.85
2022-08-04T07:50:59.778Z,26.90
2022-08-04T07:51:59.739Z,27.22
2022-08-04T07:53:53.326Z,27.47
2022-08-04T07:54:00.728Z,27.55
2022-08-04T07:54:59.730Z,27.65
2022-08-04T07:55:59.690Z,27.75
2022-08-04T07:56:59.705Z,27.85
2022-08-04T07:57:59.679Z,27.93
2022-08-04T07:58:59.735Z,28.05
2022-08-04T07:59:59.648Z,28.11
2022-08-04T08:00:59.651Z,28.22
2022-08-04T08:01:59.651Z,28.29
2022-08-04T08:02:59.699Z,28.35
2022-08-04T08:03:59.647Z,28.39
2022-08-04T08:04:59.604Z,28.38
2022-08-04T08:06:30.918Z,28.37
2022-08-04T08:07:00.626Z,28.41
2022-08-04T08:07:59.559Z,28.42
2022-08-04T08:08:59.563Z,28.49
2022-08-04T08:09:59.531Z,28.54
2022-08-04T08:10:59.534Z,28.62
2022-08-04T08:12:36.980Z,28.72
2022-08-04T08:13:00.543Z,28.75
2022-08-04T08:13:59.515Z,28.82
2022-08-04T08:14:59.568Z,28.88
2022-08-04T08:15:59.487Z,28.89
2022-08-04T08:16:59.572Z,28.96
2022-08-04T08:18:00.691Z,29.04
2022-08-04T08:18:59.463Z,29.08
2022-08-04T08:19:59.423Z,29.12
2022-08-04T08:20:59.427Z,29.13
2022-08-04T08:22:00.754Z,29.17
2022-08-04T08:22:59.439Z,29.19
2022-08-04T08:23:59.403Z,29.24
2022-08-04T08:24:59.535Z,29.34
2022-08-04T08:25:59.369Z,29.36
2022-08-04T08:26:59.377Z,29.50
2022-08-04T08:27:59.369Z,29.45
2022-08-04T08:28:59.384Z,29.45
2022-08-04T08:29:59.319Z,29.50
2022-08-04T08:30:59.505Z,29.60
2022-08-04T08:32:04.065Z,29.76
2022-08-04T08:33:00.304Z,29.82
2022-08-04T08:33:59.296Z,29.79
2022-08-04T08:34:59.427Z,29.76
2022-08-04T08:35:59.245Z,29.75
2022-08-04T08:36:59.257Z,29.75
2022-08-04T08:37:59.232Z,29.82
2022-08-04T08:38:59.544Z,29.76
2022-08-04T08:39:59.244Z,29.72
2022-08-04T08:40:59.216Z,29.71
2022-08-04T08:41:59.220Z,29.71
2022-08-04T08:42:59.187Z,29.75
2022-08-04T08:44:06.902Z,29.78
2022-08-04T08:45:00.158Z,29.84
2022-08-04T08:45:59.164Z,29.86
2022-08-04T08:46:59.135Z,29.90
2022-08-04T08:48:06.027Z,29.86
2022-08-04T08:49:00.124Z,30.00
2022-08-04T08:50:02.613Z,30.08
2022-08-04T08:50:59.084Z,30.12
2022-08-04T08:51:59.191Z,30.08
2022-08-04T08:53:02.629Z,30.06
2022-08-04T08:53:59.127Z,30.16
2022-08-04T08:54:59.112Z,30.24
2022-08-04T08:55:59.295Z,30.37
2022-08-04T08:56:59.048Z,30.53
2022-08-04T08:58:00.741Z,30.66
2022-08-04T08:58:59.115Z,30.69
2022-08-04T08:59:59.160Z,30.72
2022-08-04T09:00:59.211Z,30.75
2022-08-04T09:01:59.284Z,30.66
2022-08-04T09:03:04.774Z,30.63
2022-08-04T09:03:59.967Z,30.70
2022-08-04T09:04:59.423Z,30.81
2022-08-04T09:05:59.191Z,30.87
2022-08-04T09:06:59.381Z,30.96
2022-08-04T09:07:59.260Z,30.96
2022-08-04T09:08:59.192Z,31.09
2022-08-04T09:09:59.284Z,31.10
2022-08-04T09:10:59.308Z,31.20
2022-08-04T09:11:59.323Z,31.24
2022-08-04T09:12:59.232Z,31.28
2022-08-04T09:13:59.257Z,31.40
2022-08-04T09:14:58.849Z,31.44
2022-08-04T09:15:58.844Z,31.47
2022-08-04T09:17:05.872Z,31.49
2022-08-04T09:17:58.804Z,31.39
2022-08-04T09:18:59.552Z,31.29
2022-08-04T09:19:58.784Z,31.27
2022-08-04T09:20:58.792Z,31.27
2022-08-04T09:21:58.763Z,31.36
2022-08-04T09:22:58.743Z,31.46
2022-08-04T09:23:58.736Z,31.61
2022-08-04T09:24:58.715Z,31.58
2022-08-04T09:25:58.716Z,31.58
2022-08-04T09:26:59.886Z,31.74
2022-08-04T09:28:02.869Z,31.93
2022-08-04T09:28:59.691Z,31.89
2022-08-04T09:29:58.675Z,31.81
2022-08-04T09:30:58.675Z,31.93
2022-08-04T09:32:06.976Z,32.11
2022-08-04T09:32:59.656Z,32.08
2022-08-04T09:33:58.648Z,32.04
2022-08-04T09:35:04.648Z,32.11
2022-08-04T09:35:59.834Z,32.40
2022-08-04T09:36:58.596Z,32.82
2022-08-04T09:37:58.647Z,33.00
2022-08-04T09:38:58.646Z,33.11
2022-08-04T09:39:58.577Z,33.01
2022-08-04T09:40:58.730Z,32.80
2022-08-04T09:41:59.636Z,32.73
2022-08-04T09:42:58.553Z,32.85
2022-08-04T09:44:51.225Z,32.82
2022-08-04T09:45:05.744Z,33.04
2022-08-04T09:45:59.525Z,33.09
2022-08-04T09:46:59.765Z,33.27
2022-08-04T09:47:58.504Z,33.40
2022-08-04T09:48:58.464Z,33.28
2022-08-04T09:49:58.464Z,33.12
2022-08-04T09:50:58.475Z,33.12
2022-08-04T09:51:59.782Z,33.43
2022-08-04T09:52:58.439Z,33.53
2022-08-04T09:53:58.424Z,33.55
2022-08-04T09:54:58.421Z,33.31
2022-08-04T09:56:02.670Z,33.08
2022-08-04T09:56:59.637Z,33.02
2022-08-04T09:57:58.413Z,33.07
2022-08-04T09:58:58.444Z,33.22
2022-08-04T09:59:58.359Z,33.50
2022-08-04T10:00:58.357Z,33.52
2022-08-04T10:01:58.982Z,33.47
2022-08-04T10:02:58.361Z,33.40
2022-08-04T10:03:58.308Z,33.55
2022-08-04T10:04:58.296Z,33.71
2022-08-04T10:06:05.420Z,33.73
2022-08-04T10:06:58.312Z,33.46
2022-08-04T10:08:02.105Z,33.40
2022-08-04T10:08:59.253Z,33.34
2022-08-04T10:09:58.256Z,33.17
2022-08-04T10:10:58.246Z,33.09
2022-08-04T10:11:58.226Z,33.04
2022-08-04T10:12:58.278Z,33.04
2022-08-04T10:13:58.214Z,33.08
2022-08-04T10:14:58.192Z,33.20
2022-08-04T10:15:58.225Z,33.28
2022-08-04T10:16:58.189Z,33.24
2022-08-04T10:17:58.164Z,33.17
2022-08-04T10:18:58.197Z,33.14
2022-08-04T10:19:59.165Z,33.23
2022-08-04T10:21:02.514Z,33.36
2022-08-04T10:21:59.447Z,33.43
2022-08-04T10:23:11.246Z,33.52
2022-08-04T10:24:00.393Z,33.64
2022-08-04T10:24:58.089Z,33.67
2022-08-04T10:26:05.314Z,33.73
2022-08-04T10:26:59.068Z,33.65
2022-08-04T10:27:58.061Z,33.65
2022-08-04T10:28:58.078Z,33.68
2022-08-04T10:29:58.040Z,33.83
2022-08-04T10:30:58.033Z,33.86
2022-08-04T10:31:58.013Z,33.95
2022-08-04T10:32:58.021Z,33.92
2022-08-04T10:33:58.021Z,33.81
2022-08-04T10:34:57.975Z,33.90
2022-08-04T10:35:57.985Z,34.08
2022-08-04T10:36:57.953Z,34.11
2022-08-04T10:38:01.717Z,34.17
2022-08-04T10:38:58.042Z,34.08
2022-08-04T10:39:57.975Z,34.03
2022-08-04T10:40:57.917Z,34.03
2022-08-04T10:41:59.662Z,34.23
2022-08-04T10:42:57.913Z,34.32
2022-08-04T10:43:57.897Z,34.11
2022-08-04T10:44:58.267Z,34.05
2022-08-04T10:45:58.440Z,34.03
2022-08-04T10:46:57.868Z,34.25
2022-08-04T10:47:57.857Z,34.27
2022-08-04T10:48:57.826Z,34.25
2022-08-04T10:49:57.865Z,34.25
2022-08-04T10:50:57.809Z,34.18
2022-08-04T10:51:59.560Z,34.36
2022-08-04T10:52:57.801Z,34.43
2022-08-04T10:53:57.789Z,34.47
2022-08-04T10:54:57.950Z,34.57
2022-08-04T10:56:06.345Z,34.39
2022-08-04T10:56:58.741Z,34.35
2022-08-04T10:57:57.757Z,34.35
2022-08-04T10:58:57.724Z,34.33
2022-08-04T11:00:00.705Z,34.35
2022-08-04T11:00:58.729Z,34.33
2022-08-04T11:02:01.008Z,34.61
2022-08-04T11:02:58.751Z,34.90
2022-08-04T11:03:57.681Z,35.17
2022-08-04T11:04:57.698Z,35.14
2022-08-04T11:05:57.682Z,35.04
2022-08-04T11:06:57.694Z,35.04
2022-08-04T11:07:57.654Z,35.17
2022-08-04T11:08:57.630Z,35.37
2022-08-04T11:09:57.649Z,35.31
2022-08-04T11:10:57.626Z,35.48
2022-08-04T11:12:02.070Z,35.27
2022-08-04T11:12:57.581Z,35.00
2022-08-04T11:13:57.586Z,34.85
2022-08-04T11:14:57.582Z,34.70
2022-08-04T11:15:57.578Z,34.70
2022-08-04T11:16:57.547Z,34.81
2022-08-04T11:17:57.546Z,35.11
2022-08-04T11:18:57.513Z,35.17
2022-08-04T11:20:12.355Z,35.26
2022-08-04T11:20:58.518Z,35.44
2022-08-04T11:21:57.497Z,35.42
2022-08-04T11:22:57.531Z,35.48
2022-08-04T11:23:57.479Z,35.42
2022-08-04T11:24:57.474Z,35.48
2022-08-04T11:25:57.516Z,35.55
2022-08-04T11:26:57.438Z,35.61
2022-08-04T11:27:57.466Z,35.51
2022-08-04T11:29:04.063Z,35.52
2022-08-04T11:29:58.452Z,35.46
2022-08-04T11:30:57.411Z,35.45
2022-08-04T11:31:57.382Z,35.39
2022-08-04T11:32:57.378Z,35.15
2022-08-04T11:33:57.374Z,34.92
2022-08-04T11:34:57.356Z,34.83
2022-08-04T11:35:57.364Z,34.60
2022-08-04T11:36:57.346Z,34.48
2022-08-04T11:37:57.327Z,34.50
2022-08-04T11:38:57.372Z,34.57
2022-08-04T11:39:57.299Z,34.60
2022-08-04T11:41:02.487Z,34.47
2022-08-04T11:41:58.330Z,34.35
2022-08-04T11:42:57.279Z,34.32
2022-08-04T11:44:02.302Z,34.25
2022-08-04T11:44:58.280Z,34.18
2022-08-04T11:45:57.249Z,34.11
2022-08-04T11:46:57.330Z,34.02
2022-08-04T11:47:57.670Z,34.06
2022-08-04T11:48:57.199Z,34.21
2022-08-04T11:49:58.156Z,34.36
2022-08-04T11:50:57.199Z,34.52
2022-08-04T11:51:57.206Z,34.70
2022-08-04T11:52:57.214Z,34.75
2022-08-04T11:53:57.164Z,34.74
2022-08-04T11:54:57.146Z,34.66
2022-08-04T11:56:07.807Z,34.52
2022-08-04T11:56:58.134Z,34.50
2022-08-04T11:57:57.130Z,34.55
2022-08-04T11:58:57.095Z,34.52
2022-08-04T11:59:57.114Z,34.55
2022-08-04T12:00:58.072Z,34.64
2022-08-04T12:01:57.131Z,34.73
2022-08-04T12:02:57.070Z,34.77
2022-08-04T12:04:04.017Z,34.88
2022-08-04T12:04:58.045Z,35.00
2022-08-04T12:05:57.035Z,34.97
2022-08-04T12:07:15.152Z,34.70
2022-08-04T12:07:58.023Z,34.58
2022-08-04T12:08:57.000Z,34.74
2022-08-04T12:09:56.999Z,34.83
2022-08-04T12:10:56.995Z,34.92
2022-08-04T12:11:57.010Z,34.95
2022-08-04T12:12:56.968Z,35.07
2022-08-04T12:14:00.614Z,35.14
2022-08-04T12:14:56.928Z,34.93
2022-08-04T12:15:56.947Z,34.90
2022-08-04T12:16:56.927Z,34.86
2022-08-04T12:17:56.900Z,34.95
2022-08-04T12:18:56.911Z,35.12
2022-08-04T12:20:04.112Z,35.29
2022-08-04T12:20:57.867Z,35.37
2022-08-04T12:21:57.059Z,35.48
2022-08-04T12:22:56.882Z,35.48
2022-08-04T12:24:00.488Z,35.33
2022-08-04T12:24:56.839Z,35.29
2022-08-04T12:25:56.901Z,35.31
2022-08-04T12:26:56.804Z,35.30
2022-08-04T12:27:56.802Z,35.17
2022-08-04T12:29:12.049Z,34.92
2022-08-04T12:31:02.220Z,34.83
2022-08-04T12:31:03.402Z,34.66
2022-08-04T12:31:57.803Z,34.40
2022-08-04T12:32:56.743Z,34.30
2022-08-04T12:34:05.239Z,34.45
2022-08-04T12:34:57.943Z,34.33
2022-08-04T12:35:57.446Z,34.24
2022-08-04T12:36:58.090Z,34.17
2022-08-04T12:37:57.084Z,34.13
2022-08-04T12:38:56.772Z,34.01
2022-08-04T12:40:27.673Z,34.03
2022-08-04T12:40:57.795Z,34.10
2022-08-04T12:41:56.675Z,34.08
2022-08-04T12:42:59.726Z,34.10
2022-08-04T12:43:56.661Z,34.08
2022-08-04T12:44:56.647Z,34.03
2022-08-04T12:45:56.619Z,33.90
2022-08-04T12:46:56.627Z,33.76
2022-08-04T12:47:57.616Z,33.73
2022-08-04T12:48:56.587Z,33.76
2022-08-04T12:50:00.682Z,33.79
2022-08-04T12:50:57.561Z,33.80
2022-08-04T12:52:08.510Z,33.84